Time;durP1;ratioP1;P1;durP2;ratioP2;P2;SDS_P1;SDS_P2;PMS_P1;PMS_P2;Temp;Humidity;BMP_temperature;BMP_pressure;BME280_temperature;BME280_humidity;BME280_pressure;Samples;Min_cycle;Max_cycle;Signal;HPM_P1;HPM_P2
2021/12/17 00:06:54;;;;;;;10.82;6.53;;;;;;;5.49;79.85;101064.13;4481481;32;34382;-72
2021/12/17 00:09:22;;;;;;;10.35;6.45;;;;;;;5.21;80.40;101068.44;4482694;32;34007;-72
2021/12/17 00:11:50;;;;;;;10.38;6.93;;;;;;;5.74;78.26;101075.50;4482187;32;34325;-71
2021/12/17 00:14:26;;;;;;;12.50;6.55;;;;;;;5.68;78.41;101078.06;4481983;32;34138;-71
2021/12/17 00:16:58;;;;;;;10.20;6.40;;;;;;;6.10;76.32;101076.63;4483199;32;34246;-71
2021/12/17 00:50:00;;;;;;;8.40;5.22;;;;;;;5.56;73.75;101050.75;4482196;32;33781;-70
2021/12/17 00:52:34;;;;;;;8.60;5.37;;;;;;;5.43;74.23;101059.47;4482406;32;33572;-69
2021/12/17 00:55:04;;;;;;;7.65;5.18;;;;;;;5.18;75.37;101063.38;4481958;32;34000;-70
2021/12/17 00:57:39;;;;;;;8.10;5.25;;;;;;;5.59;73.94;101071.91;4481857;32;34116;-71
2021/12/17 01:00:11;;;;;;;8.63;5.32;;;;;;;5.06;75.26;101063.81;4483239;32;33776;-70
2021/12/17 01:02:39;;;;;;;8.82;5.22;;;;;;;5.14;74.69;101058.38;4484730;32;33643;-73
2021/12/17 01:05:14;;;;;;;7.75;4.87;;;;;;;5.58;73.25;101058.66;4484542;32;35248;-70
2021/12/17 01:07:44;;;;;;;8.18;4.80;;;;;;;5.16;74.18;101054.66;4483566;32;34279;-70
2021/12/17 01:10:20;;;;;;;7.97;5.05;;;;;;;5.35;73.82;101054.97;4483852;32;33717;-71
2021/12/17 01:12:49;;;;;;;9.25;5.03;;;;;;;5.35;73.68;101048.78;4484242;32;33930;-70
2021/12/17 01:15:19;;;;;;;8.10;5.18;;;;;;;5.22;73.97;101033.25;4484389;32;33780;-71
2021/12/17 01:17:50;;;;;;;8.48;5.10;;;;;;;5.31;72.82;101036.69;4483869;32;35002;-70
2021/12/17 01:37:10;;;;;;;8.00;4.55;;;;;;;4.97;74.09;101008.44;4484637;32;33846;-71
2021/12/17 01:42:15;;;;;;;8.07;4.93;;;;;;;5.13;73.31;101010.13;4484273;32;34017;-71
2021/12/17 01:44:42;;;;;;;8.45;4.82;;;;;;;4.94;73.65;101014.16;4483837;32;33552;-72
2021/12/17 01:47:11;;;;;;;8.32;4.55;;;;;;;5.39;71.89;101020.47;4483801;32;33889;-70
2021/12/17 02:00:32;;;;;;;6.25;3.65;;;;;;;5.06;71.05;101001.94;4483989;32;35370;-72
2021/12/17 02:03:01;;;;;;;5.65;3.47;;;;;;;4.92;71.62;100998.22;4482741;32;34460;-72
2021/12/17 02:05:28;;;;;;;6.55;3.90;;;;;;;4.64;72.32;100995.22;4483271;32;34804;-72
2021/12/17 02:07:58;;;;;;;8.07;3.85;;;;;;;4.62;72.35;101007.16;4484027;32;33833;-71
2021/12/17 02:30:45;;;;;;;5.93;3.58;;;;;;;4.98;69.70;100969.75;4484426;32;34425;-71
2021/12/17 02:32:39;;;;;;;5.35;2.95;;;;;;;5.01;69.28;100979.28;4481220;32;34502;-71
2021/12/17 02:37:35;;;;;;;6.80;3.20;;;;;;;4.56;69.87;100999.81;4484701;32;34785;-73
2021/12/17 02:42:32;;;;;;;4.60;2.75;;;;;;;4.63;70.40;101023.13;4484509;32;35183;-72
2021/12/17 02:45:46;;;;;;;5.68;3.62;;;;;;;4.69;69.08;101024.28;4482744;32;33711;-70
2021/12/17 02:48:17;;;;;;;5.78;3.65;;;;;;;4.37;70.70;101019.94;4483257;32;33769;-71
2021/12/17 02:51:03;;;;;;;6.47;3.83;;;;;;;4.76;69.92;101027.09;4484403;32;34179;-70
2021/12/17 02:53:31;;;;;;;7.10;3.60;;;;;;;4.82;69.58;101029.06;4482329;32;35019;-71
2021/12/17 02:56:05;;;;;;;7.78;4.37;;;;;;;4.51;70.11;101024.53;4483680;32;33388;-72
2021/12/17 02:58:34;;;;;;;6.07;3.47;;;;;;;4.48;70.76;101016.84;4483716;32;33969;-71
2021/12/17 03:01:04;;;;;;;7.90;4.25;;;;;;;4.49;70.71;101007.75;4483823;32;34731;-71
2021/12/17 03:03:33;;;;;;;6.93;3.62;;;;;;;4.81;69.70;101008.56;4482449;32;33965;-70
2021/12/17 03:06:00;;;;;;;7.22;4.05;;;;;;;4.46;71.42;101014.34;4483484;32;34452;-71
2021/12/17 03:08:29;;;;;;;0.65;0.65;;;;;;;4.41;71.14;101022.09;4483518;32;33694;-69
2021/12/17 03:10:58;;;;;;;7.32;4.07;;;;;;;3.99;73.26;100993.75;4483642;32;34447;-72
2021/12/17 03:13:27;;;;;;;9.75;5.03;;;;;;;4.66;71.30;100995.03;4483975;32;34754;-73
2021/12/17 03:23:52;;;;;;;7.78;4.80;;;;;;;4.64;72.40;100994.38;4483655;32;34807;-71
2021/12/17 03:26:23;;;;;;;8.55;5.25;;;;;;;5.01;71.71;100992.75;4483324;32;33653;-70
2021/12/17 03:28:56;;;;;;;10.27;6.15;;;;;;;4.38;74.48;101000.09;4483485;32;33612;-72
2021/12/17 03:31:26;;;;;;;11.10;6.70;;;;;;;4.38;75.26;101008.16;4484044;32;34139;-70
2021/12/17 03:34:02;;;;;;;11.98;7.00;;;;;;;4.57;75.28;101023.00;4482478;32;34959;-70
2021/12/17 03:36:31;;;;;;;11.20;6.95;;;;;;;4.52;75.38;101026.22;4483334;32;34480;-70
2021/12/17 03:38:59;;;;;;;12.70;7.07;;;;;;;4.17;78.38;101031.13;4483540;32;34604;-71
2021/12/17 03:41:35;;;;;;;12.73;7.55;;;;;;;4.60;76.35;101023.50;4483189;32;34850;-71
2021/12/17 03:44:05;;;;;;;14.40;8.23;;;;;;;4.52;76.50;101028.91;4483891;32;33822;-70
2021/12/17 03:46:35;;;;;;;14.52;8.55;;;;;;;4.29;78.19;101016.28;4483001;31;33869;-70
2021/12/17 03:49:03;;;;;;;16.87;9.27;;;;;;;4.40;77.76;101030.31;4482106;32;33790;-71
2021/12/17 03:51:35;;;;;;;14.23;8.50;;;;;;;4.38;77.99;101022.44;4482887;32;33004;-70
2021/12/17 03:54:04;;;;;;;13.13;8.18;;;;;;;4.26;78.60;101015.81;4483092;32;33932;-71
2021/12/17 03:56:32;;;;;;;13.57;8.02;;;;;;;4.64;76.96;101008.66;4483691;32;34598;-70
2021/12/17 03:59:00;;;;;;;14.43;8.52;;;;;;;4.42;77.81;100991.50;4483676;32;33871;-70
2021/12/17 04:01:28;;;;;;;14.68;8.38;;;;;;;4.47;77.37;100993.66;4483977;32;34042;-70
2021/12/17 04:03:56;;;;;;;14.80;8.05;;;;;;;4.26;78.12;100994.31;4483712;32;34971;-70
2021/12/17 04:06:24;;;;;;;13.98;8.73;;;;;;;4.11;78.55;101002.28;4483534;32;34714;-70
2021/12/17 04:08:54;;;;;;;12.48;7.87;;;;;;;4.30;77.51;101009.06;4483519;32;33881;-71
2021/12/17 04:11:24;;;;;;;15.30;8.18;;;;;;;4.17;77.63;101009.66;4483552;32;34176;-71
2021/12/17 04:13:57;;;;;;;13.18;7.70;;;;;;;4.23;77.58;101010.78;4483865;32;34229;-70
2021/12/17 04:16:29;;;;;;;16.73;8.98;;;;;;;4.34;77.29;101017.59;4483191;32;33854;-70
2021/12/17 04:18:56;;;;;;;15.13;8.48;;;;;;;4.04;78.35;101020.94;4479949;32;77895;-70
2021/12/17 04:21:25;;;;;;;14.77;8.25;;;;;;;4.01;78.66;101036.56;4482560;32;35108;-70
2021/12/17 04:23:56;;;;;;;13.75;8.00;;;;;;;4.25;77.51;101028.38;4483506;32;35036;-70
2021/12/17 04:26:25;;;;;;;15.23;8.77;;;;;;;4.72;75.35;101029.28;4482801;32;33654;-70
2021/12/17 04:28:54;;;;;;;12.93;7.75;;;;;;;4.37;75.98;101025.31;4482938;32;33787;-70
2021/12/17 04:31:26;;;;;;;14.75;8.07;;;;;;;4.25;76.94;101039.12;4482675;32;35106;-70
2021/12/17 04:33:54;;;;;;;13.55;8.02;;;;;;;4.39;76.54;101044.78;4482946;32;34212;-72
2021/12/17 04:36:27;;;;;;;15.85;8.75;;;;;;;4.26;76.59;101045.34;4484516;32;34682;-72
2021/12/17 04:38:57;;;;;;;13.27;7.55;;;;;;;4.16;76.95;101048.25;4483887;32;33950;-72
2021/12/17 04:46:58;;;;;;;13.13;8.07;;;;;;;4.68;74.76;101026.09;4483694;32;33555;-70
2021/12/17 04:57:47;;;;;;;14.57;7.85;;;;;;;4.57;74.89;101044.50;4485456;32;33572;-68
2021/12/17 05:00:20;;;;;;;13.43;8.13;;;;;;;4.97;73.20;101027.25;4485288;32;33705;-69
2021/12/17 05:02:52;;;;;;;15.15;8.02;;;;;;;4.78;73.87;101023.19;4497221;31;35025;-70
2021/12/17 05:05:28;;;;;;;13.80;8.15;;;;;;;4.43;75.46;101022.75;4485088;32;34898;-70
2021/12/17 05:08:01;;;;;;;14.00;8.07;;;;;;;4.29;76.00;101015.44;4485418;32;33491;-72
2021/12/17 05:10:51;;;;;;;12.85;7.68;;;;;;;4.31;76.33;101018.78;4485025;32;34073;-71
2021/12/17 05:21:25;;;;;;;12.37;7.55;;;;;;;4.11;77.06;100986.16;4483781;32;33534;-71
2021/12/17 05:23:52;;;;;;;12.70;7.37;;;;;;;3.93;78.26;100982.87;4466937;32;36579;-72
2021/12/17 05:26:21;;;;;;;13.30;7.72;;;;;;;4.31;76.45;100976.63;4469103;32;33862;-72
2021/12/17 05:28:51;;;;;;;2.37;1.75;;;;;;;4.27;76.56;100977.16;4468810;32;34514;-71
2021/12/17 05:31:21;;;;;;;13.40;7.93;;;;;;;4.32;76.11;100982.87;4466602;32;34135;-71
2021/12/17 05:33:51;;;;;;;13.90;7.53;;;;;;;4.13;77.29;100983.31;4464200;32;34310;-71
2021/12/17 05:36:21;;;;;;;12.85;7.85;;;;;;;4.26;76.91;100984.41;4467882;32;33790;-71
2021/12/17 05:38:48;;;;;;;14.43;8.20;;;;;;;4.15;76.90;100994.69;4467610;32;33790;-71
2021/12/17 05:41:16;;;;;;;2.05;1.25;;;;;;;4.38;75.59;100978.63;4467971;32;33741;-70
2021/12/17 05:43:54;;;;;;;10.98;7.10;;;;;;;4.11;76.86;100983.47;4467604;32;34939;-72
2021/12/17 05:49:06;;;;;;;10.95;6.62;;;;;;;4.10;76.22;100990.72;4466267;32;33706;-73
2021/12/17 05:51:34;;;;;;;11.32;7.07;;;;;;;4.39;75.07;100999.94;4460820;32;33985;-72
2021/12/17 05:54:01;;;;;;;12.52;7.12;;;;;;;4.24;75.61;100996.34;4465406;32;34973;-71
2021/12/17 05:56:29;;;;;;;13.93;6.93;;;;;;;4.18;75.89;100997.03;4467362;32;33977;-70
2021/12/17 05:58:58;;;;;;;14.80;8.00;;;;;;;4.39;74.99;100999.94;4467465;32;33819;-70
2021/12/17 06:01:25;;;;;;;11.82;6.95;;;;;;;4.71;73.76;100998.06;4466909;32;33791;-72
2021/12/17 06:03:53;;;;;;;12.00;7.45;;;;;;;4.31;75.15;101008.88;4467691;32;33843;-71
2021/12/17 06:06:34;;;;;;;12.85;6.80;;;;;;;3.91;76.41;101015.31;4467851;32;34163;-70
2021/12/17 06:09:05;;;;;;;11.18;6.53;;;;;;;4.06;75.90;100994.75;4468485;32;33691;-71
2021/12/17 06:11:33;;;;;;;10.80;6.78;;;;;;;4.24;75.44;100989.13;4468539;32;34010;-71
2021/12/17 06:14:02;;;;;;;10.27;6.45;;;;;;;4.08;75.92;100990.03;4468629;32;33871;-72
2021/12/17 06:16:33;;;;;;;12.37;7.15;;;;;;;4.18;75.47;101000.56;4468109;32;34209;-71
2021/12/17 06:19:02;;;;;;;10.95;6.57;;;;;;;4.05;76.41;101011.03;4468524;32;34027;-72
2021/12/17 06:21:30;;;;;;;11.50;7.50;;;;;;;3.77;77.48;101011.47;4467524;32;33433;-71
2021/12/17 06:23:58;;;;;;;10.55;6.87;;;;;;;4.05;75.72;101009.19;4476449;32;34142;-82
2021/12/17 06:26:26;;;;;;;12.00;7.12;;;;;;;4.03;75.88;101016.56;4484628;32;33689;-79
2021/12/17 06:28:54;;;;;;;10.43;7.00;;;;;;;4.24;75.51;101010.59;4484399;32;34482;-67
2021/12/17 06:31:23;;;;;;;10.57;6.72;;;;;;;3.99;75.79;101004.50;4483841;32;33913;-81
2021/12/17 06:33:51;;;;;;;13.20;7.50;;;;;;;3.90;75.75;101019.81;4484483;32;35102;-81
2021/12/17 06:36:19;;;;;;;15.27;7.97;;;;;;;4.07;75.59;101003.66;4484424;32;34590;-68
2021/12/17 06:38:47;;;;;;;13.32;7.87;;;;;;;4.23;74.90;101016.16;4484168;32;33737;-70
2021/12/17 06:41:15;;;;;;;11.98;7.30;;;;;;;3.83;76.44;101021.53;4484501;32;33590;-69
2021/12/17 06:43:46;;;;;;;13.52;7.78;;;;;;;3.88;76.40;101031.75;4484484;32;34242;-73
2021/12/17 06:46:22;;;;;;;11.02;7.15;;;;;;;3.90;75.95;101029.72;4483812;32;34380;-69
2021/12/17 06:48:57;;;;;;;10.32;6.47;;;;;;;3.63;76.66;101041.75;4484272;32;33865;-75
2021/12/17 07:10:53;;;;;;;9.93;6.35;;;;;;;3.61;76.62;101044.59;4467295;32;33556;-70
2021/12/17 07:20:10;;;;;;;12.88;7.53;;;;;;;3.47;77.50;101064.06;4482978;32;34069;-71
2021/12/17 07:35:53;;;;;;;11.98;7.07;;;;;;;3.90;75.66;101081.56;4483960;32;33870;-70
2021/12/17 07:41:07;;;;;;;10.90;7.15;;;;;;;4.26;74.70;101105.28;4483868;32;33836;-69
2021/12/17 07:43:40;;;;;;;0.93;0.93;;;;;;;4.00;75.08;101102.88;4483729;32;34597;-69
2021/12/17 07:46:11;;;;;;;12.10;6.93;;;;;;;4.18;74.74;101109.84;4483258;32;34848;-70
2021/12/17 07:48:40;;;;;;;10.23;6.60;;;;;;;3.97;75.81;101099.69;4482163;32;34256;-66
2021/12/17 07:51:09;;;;;;;9.50;6.30;;;;;;;4.25;74.56;101094.72;4469065;32;33456;-68
2021/12/17 07:53:40;;;;;;;10.43;6.47;;;;;;;5.00;72.02;101110.25;4483530;32;33878;-69
2021/12/17 07:56:10;;;;;;;9.60;6.05;;;;;;;4.62;72.89;101112.00;4482158;32;34525;-66
2021/12/17 07:58:38;;;;;;;9.43;6.10;;;;;;;4.76;72.56;101126.56;4483444;32;35200;-69
2021/12/17 08:01:08;;;;;;;10.48;5.85;;;;;;;5.38;69.88;101128.31;4483402;32;33975;-67
2021/12/17 08:03:40;;;;;;;8.23;5.70;;;;;;;5.13;70.34;101137.41;4483239;32;33224;-67
2021/12/17 08:06:08;;;;;;;9.63;5.45;;;;;;;5.75;69.05;101114.84;4482119;32;33389;-69
2021/12/17 08:08:38;;;;;;;8.85;5.28;;;;;;;5.59;68.59;101114.16;4483449;32;35069;-68
2021/12/17 08:11:06;;;;;;;9.45;5.35;;;;;;;5.33;69.79;101115.37;4484843;32;34039;-68
2021/12/17 08:13:36;;;;;;;8.88;5.28;;;;;;;4.97;70.34;101129.47;4485453;32;34580;-68
2021/12/17 08:31:34;;;;;;;8.82;4.65;;;;;;;6.15;66.63;101120.00;4484543;32;34143;-67
2021/12/17 08:34:05;;;;;;;10.38;4.72;;;;;;;6.31;66.21;101129.78;4485193;32;33764;-68
2021/12/17 08:36:33;;;;;;;9.10;4.75;;;;;;;6.18;66.69;101118.81;4485252;32;33990;-68
2021/12/17 08:39:00;;;;;;;8.95;4.80;;;;;;;6.45;65.49;101118.13;4485022;32;33759;-68
2021/12/17 08:41:28;;;;;;;8.35;5.43;;;;;;;6.64;64.24;101129.38;4485048;32;34503;-69
2021/12/17 08:43:56;;;;;;;7.75;5.00;;;;;;;6.96;63.75;101128.06;4485322;32;33858;-68
2021/12/17 08:46:24;;;;;;;7.32;4.55;;;;;;;7.19;62.64;101127.88;4484656;32;33973;-69
2021/12/17 08:48:52;;;;;;;7.75;4.82;;;;;;;7.20;62.75;101132.25;4485072;32;33671;-68
2021/12/17 08:51:22;;;;;;;8.50;4.97;;;;;;;7.60;61.35;101130.78;4485070;32;34797;-69
2021/12/17 08:53:50;;;;;;;6.45;4.18;;;;;;;8.12;60.44;101127.78;4483610;32;34169;-67
2021/12/17 08:56:20;;;;;;;8.00;4.47;;;;;;;8.40;59.31;101120.50;4485051;32;34102;-69
2021/12/17 08:58:53;;;;;;;8.57;4.70;;;;;;;7.60;60.18;101113.69;4484006;32;33970;-68
2021/12/17 09:01:21;;;;;;;9.55;4.70;;;;;;;8.58;59.11;101128.06;4483833;32;34015;-67
2021/12/17 09:03:48;;;;;;;8.05;4.37;;;;;;;8.78;57.93;101121.91;4485811;32;33570;-68
2021/12/17 09:06:24;;;;;;;7.68;4.15;;;;;;;8.93;56.54;101127.16;4486387;32;33755;-68
2021/12/17 09:08:54;;;;;;;7.65;3.70;;;;;;;9.35;55.12;101131.41;4485042;32;34139;-69
2021/12/17 09:11:25;;;;;;;9.25;4.10;;;;;;;8.35;59.00;101119.41;4486293;32;33894;-71
2021/12/17 09:13:57;;;;;;;6.00;3.90;;;;;;;8.03;58.93;101119.00;4472332;32;33640;-70
2021/12/17 09:16:25;;;;;;;6.37;3.92;;;;;;;8.45;58.31;101119.91;4486284;32;33952;-70
2021/12/17 09:18:54;;;;;;;9.23;3.97;;;;;;;8.15;59.20;101112.00;4483899;32;35103;-68
2021/12/17 09:21:23;;;;;;;7.60;4.53;;;;;;;8.39;58.38;101116.09;4485634;32;34040;-69
2021/12/17 09:23:53;;;;;;;7.03;4.32;;;;;;;8.74;57.48;101113.34;4486007;32;33573;-76
2021/12/17 09:26:22;;;;;;;6.93;4.10;;;;;;;9.08;57.07;101113.44;4486139;32;33861;-69
2021/12/17 09:28:50;;;;;;;6.72;4.18;;;;;;;9.53;54.49;101094.72;4483493;32;34218;-73
2021/12/17 09:31:18;;;;;;;6.43;3.90;;;;;;;9.43;55.48;101095.13;4468622;32;34046;-72
2021/12/17 09:33:49;;;;;;;8.55;3.95;;;;;;;8.20;59.21;101085.19;4456027;32;33637;-71
2021/12/17 09:36:18;;;;;;;5.22;3.58;;;;;;;8.71;57.55;101088.56;4469889;32;33992;-69
2021/12/17 09:38:49;;;;;;;6.50;4.03;;;;;;;8.33;58.21;101089.84;4470124;32;35120;-70
2021/12/17 09:41:19;;;;;;;5.62;3.65;;;;;;;8.22;59.60;101085.84;4470039;32;34860;-69
2021/12/17 09:43:47;;;;;;;7.55;4.12;;;;;;;8.02;59.23;101083.03;4470131;32;33462;-69
2021/12/17 09:46:14;;;;;;;5.20;3.42;;;;;;;8.21;59.25;101084.19;4470514;32;33769;-69
2021/12/17 09:48:45;;;;;;;8.75;3.70;;;;;;;8.77;57.67;101079.66;4469828;32;34147;-70
2021/12/17 09:51:14;;;;;;;7.45;3.58;;;;;;;8.28;57.74;101089.62;4470065;32;33931;-68
2021/12/17 09:53:42;;;;;;;5.97;3.78;;;;;;;7.68;59.98;101091.13;4469842;32;33451;-70
2021/12/17 09:56:10;;;;;;;6.03;3.83;;;;;;;7.91;60.39;101086.31;4469760;32;33884;-68
2021/12/17 09:58:37;;;;;;;5.78;3.78;;;;;;;7.35;60.58;101081.72;4469955;32;34169;-69
2021/12/17 10:01:05;;;;;;;6.15;4.12;;;;;;;7.64;60.52;101087.16;4470014;32;34141;-69
2021/12/17 10:03:32;;;;;;;7.78;3.80;;;;;;;8.13;59.55;101091.63;4469254;32;33468;-68
2021/12/17 10:06:00;;;;;;;5.72;3.60;;;;;;;8.22;58.84;101096.66;4470031;32;34651;-73
2021/12/17 10:08:27;;;;;;;6.40;3.42;;;;;;;7.93;60.06;101080.72;4470052;32;34302;-71
2021/12/17 10:11:01;;;;;;;5.93;4.00;;;;;;;8.62;57.99;101077.09;4469834;32;34221;-69
2021/12/17 10:13:34;;;;;;;4.82;3.28;;;;;;;8.24;58.86;101087.53;4469952;32;34518;-68
2021/12/17 10:16:07;;;;;;;5.32;3.05;;;;;;;8.01;58.63;101083.22;4469736;32;33992;-69
2021/12/17 10:19:01;;;;;;;7.40;2.90;;;;;;;7.75;59.69;101082.06;4469586;32;35263;-69
2021/12/17 10:21:28;;;;;;;8.45;3.42;;;;;;;8.24;58.58;101087.53;4466483;32;34820;-70
2021/12/17 10:23:58;;;;;;;7.43;3.55;;;;;;;8.46;58.20;101080.16;4469755;32;34587;-70
2021/12/17 10:26:27;;;;;;;5.35;2.85;;;;;;;7.88;59.63;101066.94;4470145;32;34272;-69
2021/12/17 10:29:01;;;;;;;6.40;3.22;;;;;;;7.84;59.36;101077.31;4469559;32;34223;-73
2021/12/17 10:31:30;;;;;;;5.75;2.80;;;;;;;8.14;58.52;101077.06;4455750;32;34298;-69
2021/12/17 10:34:00;;;;;;;6.25;2.67;;;;;;;8.19;58.32;101080.84;4454535;32;34292;-71
2021/12/17 10:36:36;;;;;;;6.62;3.05;;;;;;;8.72;57.18;101077.53;4469673;32;34002;-79
2021/12/17 10:39:30;;;;;;;6.45;2.80;;;;;;;8.47;57.28;101063.75;4469495;32;34471;-74
2021/12/17 10:41:57;;;;;;;;;;;;;;;8.34;57.84;101058.25;4456300;32;34175;-67
2021/12/17 10:44:27;;;;;;;5.35;3.05;;;;;;;8.44;57.21;101055.19;4469804;32;34471;-67
2021/12/17 10:47:13;;;;;;;6.10;2.95;;;;;;;7.58;59.75;101035.59;4469625;32;33888;-67
2021/12/17 10:49:57;;;;;;;5.85;3.03;;;;;;;8.08;58.52;101042.72;4469516;32;34340;-69
2021/12/17 10:52:34;;;;;;;5.95;2.97;;;;;;;7.98;58.36;101052.03;4469814;32;35079;-69
2021/12/17 10:55:14;;;;;;;6.85;3.10;;;;;;;7.63;59.00;101053.09;4469354;32;33818;-67
2021/12/17 10:57:43;;;;;;;5.70;3.08;;;;;;;7.23;60.87;101050.06;4469526;32;33802;-68
2021/12/17 11:00:11;;;;;;;6.37;3.20;;;;;;;7.67;60.08;101047.09;4469543;32;34371;-68
2021/12/17 11:02:48;;;;;;;6.50;3.10;;;;;;;8.36;57.69;101043.47;4469389;32;35447;-70
2021/12/17 11:05:17;;;;;;;5.85;3.20;;;;;;;8.22;58.53;101052.56;4468660;32;34462;-69
2021/12/17 11:07:45;;;;;;;5.90;3.15;;;;;;;8.14;58.57;101044.63;4455660;32;33932;-69
2021/12/17 11:10:15;;;;;;;7.55;3.85;;;;;;;7.86;59.17;101040.13;4469506;32;34072;-69
2021/12/17 11:12:45;;;;;;;8.55;3.58;;;;;;;7.34;60.40;101042.28;4469652;32;34319;-70
2021/12/17 11:15:12;;;;;;;7.55;4.57;;;;;;;7.48;59.79;101037.81;4469419;32;33361;-70
2021/12/17 11:17:41;;;;;;;5.78;3.90;;;;;;;8.01;59.25;101029.16;4469605;32;34738;-69
2021/12/17 11:20:12;;;;;;;6.35;2.92;;;;;;;8.40;58.77;101043.91;4455686;32;34212;-70
2021/12/17 11:22:41;;;;;;;5.60;2.62;;;;;;;8.38;57.76;101027.03;4469257;32;33964;-69
2021/12/17 11:25:10;;;;;;;5.62;2.83;;;;;;;8.67;56.29;101030.50;4455507;32;34463;-68
2021/12/17 11:27:38;;;;;;;5.65;3.00;;;;;;;8.43;56.89;101043.53;4469207;32;33418;-71
2021/12/17 11:30:08;;;;;;;5.05;2.85;;;;;;;8.42;56.57;101031.03;4469545;32;33798;-69
2021/12/17 11:32:36;;;;;;;5.72;3.37;;;;;;;8.15;57.40;101035.50;4469755;32;33823;-68
2021/12/17 11:35:04;;;;;;;7.22;3.10;;;;;;;8.16;57.84;101037.16;4469219;32;33502;-70
2021/12/17 11:37:32;;;;;;;7.20;3.30;;;;;;;8.25;57.76;101032.41;4469496;32;34074;-73
2021/12/17 11:40:07;;;;;;;6.18;2.97;;;;;;;8.02;58.32;101037.09;4470771;32;34050;-72
2021/12/17 11:42:47;;;;;;;4.22;2.53;;;;;;;8.15;58.08;101030.09;4470513;32;34168;-71
2021/12/17 11:45:28;;;;;;;4.87;2.75;;;;;;;8.52;57.41;101030.66;4485221;32;33783;-73
2021/12/17 11:48:18;;;;;;;5.87;2.72;;;;;;;8.96;55.81;101024.72;4484640;32;33755;-71
2021/12/17 11:50:59;;;;;;;6.55;3.17;;;;;;;8.27;56.69;101016.81;4484491;32;34342;-69
2021/12/17 11:53:31;;;;;;;;;;;;;;;8.14;57.11;101023.00;4484780;32;34943;-71
2021/12/17 11:56:03;;;;;;;4.50;2.47;;;;;;;8.26;56.39;101015.97;4470690;32;34369;-71
2021/12/17 11:58:52;;;;;;;6.20;2.45;;;;;;;7.85;57.95;101032.22;4484717;32;34745;-71
2021/12/17 12:01:49;;;;;;;5.20;2.60;;;;;;;8.19;57.17;101040.28;4484215;32;34759;-72
2021/12/17 12:04:38;;;;;;;6.22;2.65;;;;;;;8.67;55.86;101044.84;4484601;32;34223;-72
2021/12/17 12:07:25;;;;;;;5.50;2.60;;;;;;;8.58;55.91;101035.25;4484391;32;33754;-71
2021/12/17 12:10:00;;;;;;;4.72;2.75;;;;;;;8.00;57.69;101041.84;4484259;32;34661;-71
2021/12/17 12:12:30;;;;;;;4.82;2.75;;;;;;;8.20;57.09;101044.66;4484537;32;34373;-73
2021/12/17 12:15:16;;;;;;;4.55;2.70;;;;;;;8.10;56.28;101046.06;4484401;32;34793;-71
2021/12/17 12:18:03;;;;;;;5.62;2.50;;;;;;;8.00;56.75;101044.56;4484145;32;33754;-71
2021/12/17 12:23:25;;;;;;;4.25;2.17;;;;;;;8.49;55.44;101040.03;4483773;32;34285;-70
2021/12/17 12:26:05;;;;;;;5.00;2.85;;;;;;;8.27;55.42;101039.28;4484207;32;34264;-71
2021/12/17 12:28:44;;;;;;;4.85;2.62;;;;;;;8.37;56.52;101044.31;4483285;32;33165;-69
2021/12/17 12:31:34;;;;;;;5.12;2.55;;;;;;;8.45;56.79;101030.66;4467016;32;34810;-67
2021/12/17 12:34:05;;;;;;;4.93;2.40;;;;;;;8.26;56.99;101034.91;4467342;32;34011;-67
2021/12/17 12:37:04;;;;;;;4.72;2.67;;;;;;;8.48;56.08;101029.41;4467100;32;34011;-66
2021/12/17 12:39:47;;;;;;;5.07;2.75;;;;;;;8.29;56.18;101022.84;4467286;32;33703;-69
2021/12/17 12:42:16;;;;;;;5.00;2.40;;;;;;;8.65;56.44;101041.50;4467146;32;34543;-67
2021/12/17 12:44:52;;;;;;;5.93;2.83;;;;;;;8.38;54.97;101024.31;4467231;32;33995;-69
2021/12/17 12:47:20;;;;;;;7.60;3.30;;;;;;;8.16;56.52;101034.44;4466844;32;35022;-68
2021/12/17 12:49:56;;;;;;;5.20;2.60;;;;;;;7.90;57.45;101025.16;4467008;32;34529;-70
2021/12/17 12:52:32;;;;;;;5.72;2.87;;;;;;;8.27;56.07;101027.63;4453215;32;33910;-67
2021/12/17 12:55:05;;;;;;;5.82;2.58;;;;;;;8.24;55.98;101034.28;4466817;32;34171;-68
2021/12/17 12:57:36;;;;;;;4.97;2.45;;;;;;;8.37;55.88;101028.09;4468651;32;34876;-68
2021/12/17 13:00:12;;;;;;;5.07;2.47;;;;;;;8.02;56.52;101026.28;4455183;32;34669;-68
2021/12/17 13:02:40;;;;;;;6.45;2.55;;;;;;;7.86;56.51;101029.34;4454770;32;34153;-68
2021/12/17 13:05:09;;;;;;;6.05;2.90;;;;;;;7.87;57.72;101030.16;4468173;32;33951;-68
2021/12/17 13:07:44;;;;;;;5.65;2.75;;;;;;;7.93;57.18;101024.78;4468670;32;34977;-68
2021/12/17 13:10:13;;;;;;;3.90;2.50;;;;;;;7.64;58.57;101025.84;4469088;32;34630;-68
2021/12/17 13:12:52;;;;;;;4.43;2.60;;;;;;;8.10;57.28;101033.41;4469302;32;33958;-68
2021/12/17 13:21:15;;;;;;;4.28;2.47;;;;;;;7.59;58.30;101037.25;4467927;32;33706;-68
2021/12/17 13:23:56;;;;;;;5.00;2.60;;;;;;;7.37;59.14;101041.03;4468640;32;33980;-66
2021/12/17 13:26:26;;;;;;;8.45;3.00;;;;;;;7.81;57.70;101029.06;4467768;32;34971;-68
2021/12/17 13:28:55;;;;;;;7.10;2.97;;;;;;;7.77;58.22;101030.50;4468657;32;33906;-68
2021/12/17 13:31:49;;;;;;;6.37;2.70;;;;;;;7.03;60.63;101036.41;4468880;32;33490;-69
2021/12/17 13:34:20;;;;;;;5.80;2.92;;;;;;;6.81;60.84;101027.47;4467833;32;33890;-68
2021/12/17 13:36:53;;;;;;;4.70;2.90;;;;;;;6.76;61.30;101026.19;4468484;32;34637;-68
2021/12/17 13:39:23;;;;;;;4.90;2.80;;;;;;;6.62;61.88;101028.94;4468558;32;33828;-67
2021/12/17 13:41:51;;;;;;;5.85;2.83;;;;;;;6.71;60.63;101031.31;4468990;32;34289;-68
2021/12/17 13:44:44;;;;;;;5.70;2.58;;;;;;;6.84;61.13;101033.31;4455038;32;33354;-69
2021/12/17 13:47:42;;;;;;;5.35;2.87;;;;;;;6.45;61.92;101028.34;4468338;32;34134;-68
2021/12/17 13:50:23;;;;;;;5.55;2.87;;;;;;;6.67;61.07;101023.78;4467339;32;34441;-81
2021/12/17 13:53:03;;;;;;;6.28;3.10;;;;;;;6.84;61.16;101038.69;4454869;32;33735;-80
2021/12/17 13:55:33;;;;;;;5.60;3.10;;;;;;;6.77;60.75;101037.81;4454753;32;33972;-80
2021/12/17 13:58:06;;;;;;;6.65;2.70;;;;;;;6.12;62.26;101042.25;4468725;32;34549;-81
2021/12/17 14:00:36;;;;;;;5.97;3.25;;;;;;;6.35;62.16;101050.22;4468675;32;35089;-71
2021/12/17 14:03:05;;;;;;;7.57;3.33;;;;;;;6.78;60.51;101061.03;4468962;32;33978;-81
2021/12/17 14:05:51;;;;;;;4.47;2.85;;;;;;;6.57;61.46;101051.09;4454724;32;34079;-81
2021/12/17 14:08:20;;;;;;;5.25;3.00;;;;;;;6.70;60.37;101059.31;4467668;32;34283;-79
2021/12/17 14:10:49;;;;;;;7.10;3.55;;;;;;;6.65;60.57;101055.50;4468689;32;33965;-78
2021/12/17 14:13:21;;;;;;;7.72;3.60;;;;;;;6.80;60.36;101063.56;4468837;32;33656;-78
2021/12/17 14:16:05;;;;;;;5.35;3.33;;;;;;;6.41;61.26;101062.09;4468180;32;34033;-81
2021/12/17 14:18:33;;;;;;;7.75;3.87;;;;;;;6.72;60.52;101051.06;4468571;32;35053;-80
2021/12/17 14:21:04;;;;;;;4.47;2.72;;;;;;;6.19;61.66;101053.94;4468819;32;34122;-78
2021/12/17 14:23:37;;;;;;;5.35;3.70;;;;;;;6.22;62.16;101052.72;4467090;32;33764;-79
2021/12/17 14:26:06;;;;;;;6.12;3.20;;;;;;;6.85;59.48;101044.97;4468723;32;33969;-69
2021/12/17 14:28:38;;;;;;;6.25;3.72;;;;;;;6.39;61.03;101029.91;4469692;32;35275;-71
2021/12/17 14:31:15;;;;;;;6.25;3.30;;;;;;;6.22;61.81;101040.13;4483021;32;33747;-68
2021/12/17 14:33:56;;;;;;;4.57;2.70;;;;;;;6.62;60.38;101031.62;4483009;32;33773;-79
2021/12/17 14:36:37;;;;;;;4.78;2.40;;;;;;;6.15;61.58;101025.69;4484571;32;33919;-70
2021/12/17 14:39:15;;;;;;;7.87;2.80;;;;;;;6.57;60.26;101033.03;4484266;32;34043;-70
2021/12/17 14:41:58;;;;;;;6.53;3.00;;;;;;;6.13;61.84;101025.91;4483034;32;34097;-72
2021/12/17 14:47:07;;;;;;;6.78;3.55;;;;;;;6.33;61.71;101022.63;4484532;32;34017;-72
2021/12/17 15:03:45;;;;;;;;;;;;;;;6.46;61.07;101021.94;4485531;32;33977;-70
2021/12/17 15:06:05;;;;;;;8.73;3.53;;;;;;;6.36;61.27;101027.63;4472506;32;33482;-70
2021/12/17 15:08:33;;;;;;;9.50;3.67;;;;;;;5.77;63.06;101023.13;4485227;32;34633;-71
2021/12/17 15:11:04;;;;;;;7.95;3.97;;;;;;;5.53;64.12;101011.59;4483623;32;34334;-68
2021/12/17 15:13:32;;;;;;;6.57;3.80;;;;;;;5.34;64.96;101022.91;4476464;32;33839;-69
2021/12/17 15:15:59;;;;;;;7.80;4.35;;;;;;;5.98;62.76;101018.84;4485452;32;33198;-70
2021/12/17 15:18:27;;;;;;;5.90;3.30;;;;;;;5.46;64.25;101013.31;4484651;32;34835;-70
2021/12/17 15:20:59;;;;;;;7.03;3.70;;;;;;;5.58;64.02;101020.97;4485032;32;34188;-71